createdAt,value
2023-01-06T00:00:35.999Z,99081.03
2023-01-06T00:01:37.849Z,99075.16
2023-01-06T00:02:39.559Z,99081.69
2023-01-06T00:03:41.315Z,99082.25
2023-01-06T00:04:43.046Z,99090.81
2023-01-06T00:05:44.775Z,99087.78
2023-01-06T00:06:46.675Z,99091.69
2023-01-06T00:07:52.824Z,99090.84
2023-01-06T00:08:55.802Z,99085.56
2023-01-06T00:09:57.565Z,99085.19
2023-01-06T00:10:59.255Z,99095.34
2023-01-06T00:12:01.346Z,99108.38
2023-01-06T00:13:03.053Z,99105.53
2023-01-06T00:14:04.971Z,99105.75
2023-01-06T00:15:07.083Z,99107.56
2023-01-06T00:16:12.140Z,99112.47
2023-01-06T00:17:14.256Z,99118.75
2023-01-06T00:18:16.021Z,99105.13
2023-01-06T00:19:17.779Z,99113.88
2023-01-06T00:20:19.566Z,99115.72
2023-01-06T00:21:21.336Z,99124.03
2023-01-06T00:22:23.031Z,99117.53
2023-01-06T00:23:24.721Z,99110.22
2023-01-06T00:24:26.420Z,99117.94
2023-01-06T00:25:28.116Z,99116.09
2023-01-06T00:26:30.177Z,99131.56
2023-01-06T00:27:32.650Z,99125.47
2023-01-06T00:28:35.545Z,99131.56
2023-01-06T00:29:37.462Z,99141.09
2023-01-06T00:30:39.160Z,99112.03
2023-01-06T00:31:40.917Z,99117.53
2023-01-06T00:32:42.671Z,99122.81
2023-01-06T00:33:44.703Z,99123.00
2023-01-06T00:34:46.392Z,99133.00
2023-01-06T00:35:48.146Z,99141.53
2023-01-06T00:36:49.897Z,99130.75
2023-01-06T00:37:51.590Z,99137.63
2023-01-06T00:38:53.333Z,99132.34
2023-01-06T00:39:55.121Z,99129.94
2023-01-06T00:40:57.332Z,99138.44
2023-01-06T00:42:04.885Z,99141.91
2023-01-06T00:43:06.599Z,99126.66
2023-01-06T00:44:08.542Z,99133.16
2023-01-06T00:45:10.605Z,99132.38
2023-01-06T00:46:12.349Z,99135.22
2023-01-06T00:47:14.762Z,99120.38
2023-01-06T00:48:17.871Z,99133.81
2023-01-06T00:49:19.679Z,99135.81
2023-01-06T00:50:21.561Z,99132.56
2023-01-06T00:51:23.396Z,99120.56
2023-01-06T00:52:25.127Z,99140.31
2023-01-06T00:53:26.823Z,99144.16
2023-01-06T00:54:28.646Z,99141.72
2023-01-06T00:55:30.459Z,99150.28
2023-01-06T00:56:32.776Z,99145.38
2023-01-06T00:57:34.513Z,99139.47
2023-01-06T00:58:36.287Z,99152.09
2023-01-06T00:59:38.064Z,99159.81
2023-01-06T01:00:39.783Z,99149.66
2023-01-06T01:01:43.012Z,99152.28
2023-01-06T01:02:44.841Z,99144.97
2023-01-06T01:03:46.598Z,99152.91
2023-01-06T01:04:48.395Z,99157.56
2023-01-06T01:05:50.149Z,99158.56
2023-01-06T01:06:53.529Z,99157.56
2023-01-06T01:07:55.226Z,99166.91
2023-01-06T01:08:59.947Z,99170.78
2023-01-06T01:10:01.688Z,99168.13
2023-01-06T01:11:09.183Z,99153.50
2023-01-06T01:12:14.359Z,99175.44
2023-01-06T01:13:16.090Z,99167.34
2023-01-06T01:14:20.105Z,99172.22
2023-01-06T01:15:22.614Z,99169.16
2023-01-06T01:16:24.353Z,99160.03
2023-01-06T01:17:29.038Z,99161.22
2023-01-06T01:18:30.751Z,99161.41
2023-01-06T01:19:32.703Z,99165.88
2023-01-06T01:20:34.856Z,99163.25
2023-01-06T01:21:36.707Z,99160.00
2023-01-06T01:22:38.460Z,99170.59
2023-01-06T01:23:40.240Z,99150.63
2023-01-06T01:24:42.287Z,99156.94
2023-01-06T01:25:43.992Z,99161.84
2023-01-06T01:26:45.823Z,99158.59
2023-01-06T01:27:47.528Z,99150.66
2023-01-06T01:28:49.207Z,99142.53
2023-01-06T01:29:50.910Z,99158.78
2023-01-06T01:31:00.022Z,99148.22
2023-01-06T01:32:02.250Z,99156.16
2023-01-06T01:33:04.045Z,99150.25
2023-01-06T01:34:05.890Z,99144.16
2023-01-06T01:35:07.873Z,99139.69
2023-01-06T01:36:13.247Z,99149.03
2023-01-06T01:37:16.243Z,99161.66
2023-01-06T01:38:17.979Z,99137.66
2023-01-06T01:39:23.009Z,99147.81
2023-01-06T01:40:24.714Z,99144.16
2023-01-06T01:41:28.377Z,99152.28
2023-01-06T01:42:31.126Z,99157.94
2023-01-06T01:44:06.550Z,99148.22
2023-01-06T01:45:23.310Z,99164.47
2023-01-06T01:46:40.968Z,99160.59
2023-01-06T01:47:49.803Z,99165.69
2023-01-06T01:48:53.211Z,99157.53
2023-01-06T01:49:59.957Z,99172.38
2023-01-06T01:51:07.245Z,99151.25
2023-01-06T01:52:10.826Z,99163.63
2023-01-06T01:53:32.207Z,99148.97
2023-01-06T01:54:35.917Z,99145.72
2023-01-06T01:55:39.086Z,99155.50
2023-01-06T01:56:46.813Z,99152.63
2023-01-06T01:58:14.019Z,99161.19
2023-01-06T01:59:23.798Z,99139.41
2023-01-06T02:00:25.640Z,99140.44
2023-01-06T02:01:28.291Z,99157.53
2023-01-06T02:02:31.903Z,99152.00
2023-01-06T02:03:34.019Z,99133.72
2023-01-06T02:04:39.524Z,99141.66
2023-01-06T02:05:46.068Z,99151.78
2023-01-06T02:06:50.596Z,99135.72
2023-01-06T02:07:53.398Z,99149.56
2023-01-06T02:09:06.904Z,99145.88
2023-01-06T02:10:14.697Z,99139.78
2023-01-06T02:11:16.515Z,99146.91
2023-01-06T02:12:18.314Z,99131.44
2023-01-06T02:13:20.111Z,99133.47
2023-01-06T02:14:24.735Z,99134.91
2023-01-06T02:15:34.341Z,99146.31
2023-01-06T02:17:05.761Z,99151.59
2023-01-06T02:18:38.266Z,99138.78
2023-01-06T02:20:01.552Z,99152.59
2023-01-06T02:21:12.747Z,99145.69
2023-01-06T02:22:23.372Z,99148.34
2023-01-06T02:23:33.963Z,99155.84
2023-01-06T02:25:14.769Z,99159.53
2023-01-06T02:26:35.292Z,99159.72
2023-01-06T02:27:45.830Z,99151.78
2023-01-06T02:28:50.631Z,99154.84
2023-01-06T02:30:14.216Z,99166.03
2023-01-06T02:31:37.612Z,99145.47
2023-01-06T02:32:57.818Z,99155.44
2023-01-06T02:34:39.523Z,99151.78
2023-01-06T02:36:19.588Z,99143.44
2023-01-06T02:37:27.316Z,99137.75
2023-01-06T02:38:49.366Z,99136.53
2023-01-06T02:40:12.325Z,99123.25
2023-01-06T02:41:23.130Z,99125.28
2023-01-06T02:42:46.305Z,99121.41
2023-01-06T02:43:58.021Z,99122.63
2023-01-06T02:45:14.688Z,99116.31
2023-01-06T02:46:52.311Z,99108.53
2023-01-06T02:48:15.498Z,99104.88
2023-01-06T02:49:23.149Z,99099.16
2023-01-06T02:50:52.957Z,99084.03
2023-01-06T02:52:14.139Z,99082.88
2023-01-06T02:53:31.214Z,99077.13
2023-01-06T02:54:44.637Z,99070.19
2023-01-06T02:55:53.694Z,99067.53
2023-01-06T02:57:28.920Z,99072.44
2023-01-06T02:58:40.618Z,99071.19
2023-01-06T03:00:05.883Z,99049.09
2023-01-06T03:01:28.839Z,99087.63
2023-01-06T03:02:33.829Z,99082.34
2023-01-06T03:03:39.348Z,99075.44
2023-01-06T03:04:45.945Z,99068.91
2023-01-06T03:05:52.781Z,99072.53
2023-01-06T03:06:58.983Z,99070.91
2023-01-06T03:08:05.484Z,99054.03
2023-01-06T03:09:07.383Z,99066.00
2023-01-06T03:10:10.415Z,99066.81
2023-01-06T03:11:12.561Z,99063.56
2023-01-06T03:12:32.265Z,99073.50
2023-01-06T03:13:37.097Z,99078.16
2023-01-06T03:14:45.757Z,99071.03
2023-01-06T03:15:47.596Z,99061.69
2023-01-06T03:16:49.497Z,99068.59
2023-01-06T03:17:51.909Z,99059.44
2023-01-06T03:18:54.709Z,99070.81
2023-01-06T03:19:57.098Z,99054.34
2023-01-06T03:21:03.986Z,99061.84
2023-01-06T03:22:08.374Z,99058.19
2023-01-06T03:23:13.205Z,99046.56
2023-01-06T03:24:15.836Z,99034.94
2023-01-06T03:25:18.246Z,99044.72
2023-01-06T03:26:20.110Z,99035.75
2023-01-06T03:27:25.913Z,99041.28
2023-01-06T03:28:27.683Z,99043.91
2023-01-06T03:29:29.693Z,99031.31
2023-01-06T03:30:42.756Z,99012.56
2023-01-06T03:31:58.679Z,99019.19
2023-01-06T03:33:09.564Z,99015.53
2023-01-06T03:34:20.308Z,99000.88
2023-01-06T03:35:34.069Z,99012.94
2023-01-06T03:36:54.390Z,99001.97
2023-01-06T03:38:21.253Z,99009.03
2023-01-06T03:39:40.056Z,99013.38
2023-01-06T03:40:56.033Z,99006.88
2023-01-06T03:42:36.201Z,99015.25
2023-01-06T03:43:48.579Z,99024.59
2023-01-06T03:45:02.808Z,99026.50
2023-01-06T03:46:46.386Z,99022.63
2023-01-06T03:47:56.591Z,99021.19
2023-01-06T03:49:22.550Z,99022.81
2023-01-06T03:50:35.631Z,99031.31
2023-01-06T03:51:40.195Z,99037.41
2023-01-06T03:53:14.361Z,99028.44
2023-01-06T03:54:41.774Z,99021.53
2023-01-06T03:55:47.769Z,99030.06
2023-01-06T03:56:54.959Z,99020.72
2023-01-06T03:57:59.918Z,99028.44
2023-01-06T03:59:07.515Z,99028.13
2023-01-06T04:00:19.906Z,99026.66
2023-01-06T04:01:24.095Z,99021.19
2023-01-06T04:02:26.661Z,99030.31
2023-01-06T04:03:28.557Z,99025.91
2023-01-06T04:04:30.376Z,99029.75
2023-01-06T04:05:32.093Z,99018.78
2023-01-06T04:06:33.844Z,99036.66
2023-01-06T04:07:35.866Z,99059.28
2023-01-06T04:08:37.634Z,99057.84
2023-01-06T04:09:39.352Z,99039.34
2023-01-06T04:10:41.102Z,99054.97
2023-01-06T04:12:01.687Z,99063.50
2023-01-06T04:13:03.401Z,99058.31
2023-01-06T04:14:05.121Z,99071.53
2023-01-06T04:15:10.649Z,99069.34
2023-01-06T04:16:12.394Z,99066.09
2023-01-06T04:17:14.116Z,99081.53
2023-01-06T04:18:15.852Z,99079.34
2023-01-06T04:19:17.693Z,99079.63
2023-01-06T04:20:25.002Z,99104.66
2023-01-06T04:21:26.718Z,99094.06
2023-01-06T04:22:28.570Z,99102.41
2023-01-06T04:23:33.110Z,99117.47
2023-01-06T04:24:34.869Z,99120.16
2023-01-06T04:25:36.727Z,99124.22
2023-01-06T04:26:38.422Z,99111.44
2023-01-06T04:27:40.356Z,99119.56
2023-01-06T04:28:42.062Z,99131.03
2023-01-06T04:29:43.816Z,99134.44
2023-01-06T04:30:45.521Z,99131.44
2023-01-06T04:31:47.297Z,99138.75
2023-01-06T04:32:49.435Z,99122.09
2023-01-06T04:33:51.318Z,99141.22
2023-01-06T04:34:53.214Z,99135.16
2023-01-06T04:35:55.111Z,99146.50
2023-01-06T04:36:57.101Z,99126.59
2023-01-06T04:38:02.285Z,99124.56
2023-01-06T04:39:04.146Z,99139.63
2023-01-06T04:40:07.836Z,99140.88
2023-01-06T04:41:09.579Z,99133.34
2023-01-06T04:42:11.329Z,99131.50
2023-01-06T04:43:16.294Z,99152.66
2023-01-06T04:44:18.124Z,99139.88
2023-01-06T04:45:19.847Z,99142.09
2023-01-06T04:46:21.563Z,99160.19
2023-01-06T04:47:23.265Z,99160.00
2023-01-06T04:48:25.625Z,99163.06
2023-01-06T04:49:27.356Z,99161.22
2023-01-06T04:50:29.095Z,99169.34
2023-01-06T04:51:31.128Z,99165.50
2023-01-06T04:52:32.897Z,99170.59
2023-01-06T04:53:39.828Z,99159.59
2023-01-06T04:54:41.521Z,99167.34
2023-01-06T04:55:43.287Z,99173.81
2023-01-06T04:56:45.216Z,99179.94
2023-01-06T04:57:47.134Z,99168.56
2023-01-06T04:58:48.909Z,99173.41
2023-01-06T04:59:50.663Z,99163.47
2023-01-06T05:00:59.065Z,99163.47
2023-01-06T05:02:00.798Z,99182.38
2023-01-06T05:03:02.586Z,99178.31
2023-01-06T05:04:07.364Z,99191.53
2023-01-06T05:05:09.617Z,99171.41
2023-01-06T05:06:12.175Z,99200.69
2023-01-06T05:07:13.944Z,99187.84
2023-01-06T05:08:15.632Z,99195.78
2023-01-06T05:09:17.428Z,99197.41
2023-01-06T05:10:19.219Z,99186.44
2023-01-06T05:11:23.624Z,99210.03
2023-01-06T05:12:25.643Z,99216.31
2023-01-06T05:13:28.130Z,99210.41
2023-01-06T05:14:29.882Z,99192.53
2023-01-06T05:15:31.591Z,99213.47
2023-01-06T05:16:35.156Z,99212.06
2023-01-06T05:17:36.987Z,99231.75
2023-01-06T05:18:38.689Z,99229.50
2023-01-06T05:19:43.044Z,99236.03
2023-01-06T05:20:44.773Z,99217.94
2023-01-06T05:21:46.457Z,99221.97
2023-01-06T05:22:48.214Z,99232.53
2023-01-06T05:23:49.943Z,99226.06
2023-01-06T05:24:51.695Z,99234.78
2023-01-06T05:25:54.089Z,99243.53
2023-01-06T05:26:55.819Z,99242.91
2023-01-06T05:27:57.537Z,99241.28
2023-01-06T05:28:59.315Z,99238.03
2023-01-06T05:30:01.031Z,99242.25
2023-01-06T05:31:04.882Z,99244.50
2023-01-06T05:32:07.072Z,99234.53
2023-01-06T05:33:08.766Z,99251.00
2023-01-06T05:34:11.316Z,99261.56
2023-01-06T05:35:13.000Z,99259.16
2023-01-06T05:36:16.650Z,99266.03
2023-01-06T05:37:18.423Z,99271.94
2023-01-06T05:38:20.120Z,99269.91
2023-01-06T05:39:21.817Z,99272.94
2023-01-06T05:40:24.133Z,99275.19
2023-01-06T05:41:25.884Z,99278.22
2023-01-06T05:42:27.604Z,99275.78
2023-01-06T05:43:30.047Z,99275.97
2023-01-06T05:44:31.875Z,99279.00
2023-01-06T05:45:33.625Z,99276.59
2023-01-06T05:46:35.395Z,99282.25
2023-01-06T05:47:37.177Z,99281.44
2023-01-06T05:48:39.511Z,99285.91
2023-01-06T05:49:41.237Z,99281.88
2023-01-06T05:50:43.054Z,99289.19
2023-01-06T05:51:44.790Z,99304.25
2023-01-06T05:52:46.484Z,99293.25
2023-01-06T05:53:52.260Z,99303.25
2023-01-06T05:54:54.103Z,99311.56
2023-01-06T05:56:01.711Z,99305.81
2023-01-06T05:57:03.509Z,99300.53
2023-01-06T05:58:05.197Z,99311.16
2023-01-06T05:59:06.924Z,99310.69
2023-01-06T06:00:09.279Z,99309.69
2023-01-06T06:01:25.437Z,99314.81
2023-01-06T06:02:27.258Z,99305.03
2023-01-06T06:03:29.295Z,99304.41
2023-01-06T06:04:31.043Z,99315.63
2023-01-06T06:05:32.860Z,99316.44
2023-01-06T06:06:34.622Z,99299.34
2023-01-06T06:07:36.516Z,99311.38
2023-01-06T06:08:38.568Z,99310.56
2023-01-06T06:09:40.578Z,99305.25
2023-01-06T06:10:42.288Z,99300.78
2023-01-06T06:11:44.015Z,99308.28
2023-01-06T06:12:45.717Z,99298.53
2023-01-06T06:13:57.753Z,99310.75
2023-01-06T06:14:59.466Z,99291.63
2023-01-06T06:16:05.206Z,99298.16
2023-01-06T06:17:06.991Z,99300.81
2023-01-06T06:18:08.720Z,99283.56
2023-01-06T06:19:13.165Z,99286.19
2023-01-06T06:20:14.921Z,99283.75
2023-01-06T06:21:19.670Z,99273.75
2023-01-06T06:22:21.374Z,99273.81
2023-01-06T06:23:23.114Z,99263.44
2023-01-06T06:24:24.870Z,99270.53
2023-01-06T06:25:26.864Z,99293.53
2023-01-06T06:26:28.743Z,99277.28
2023-01-06T06:27:30.543Z,99272.19
2023-01-06T06:28:33.786Z,99259.59
2023-01-06T06:29:35.528Z,99269.78
2023-01-06T06:30:37.235Z,99262.47
2023-01-06T06:31:39.075Z,99267.13
2023-01-06T06:32:40.814Z,99272.06
2023-01-06T06:33:42.520Z,99266.16
2023-01-06T06:34:44.229Z,99278.16
2023-01-06T06:35:46.014Z,99269.00
2023-01-06T06:36:47.730Z,99285.28
2023-01-06T06:37:49.449Z,99277.94
2023-01-06T06:38:52.725Z,99266.31
2023-01-06T06:39:54.420Z,99269.19
2023-01-06T06:40:56.193Z,99306.00
2023-01-06T06:41:57.904Z,99304.81
2023-01-06T06:42:59.598Z,99295.41
2023-01-06T06:44:01.526Z,99301.75
2023-01-06T06:45:03.339Z,99301.31
2023-01-06T06:46:05.329Z,99295.84
2023-01-06T06:47:07.064Z,99287.69
2023-01-06T06:48:09.065Z,99288.50
2023-01-06T06:49:10.863Z,99306.41
2023-01-06T06:50:13.233Z,99305.00
2023-01-06T06:51:19.334Z,99311.28
2023-01-06T06:52:24.072Z,99324.94
2023-01-06T06:53:26.521Z,99321.69
2023-01-06T06:54:28.204Z,99302.34
2023-01-06T06:55:29.902Z,99322.69
2023-01-06T06:56:31.683Z,99324.75
2023-01-06T06:57:33.402Z,99337.16
2023-01-06T06:58:36.608Z,99326.56
2023-01-06T06:59:38.319Z,99328.19
2023-01-06T07:00:40.059Z,99331.88
2023-01-06T07:01:41.988Z,99338.78
2023-01-06T07:02:44.644Z,99322.09
2023-01-06T07:03:46.444Z,99334.97
2023-01-06T07:04:48.252Z,99337.41
2023-01-06T07:05:51.934Z,99339.81
2023-01-06T07:06:53.684Z,99322.31
2023-01-06T07:07:55.536Z,99323.31
2023-01-06T07:08:57.719Z,99323.06
2023-01-06T07:09:59.438Z,99314.72
2023-01-06T07:11:01.577Z,99318.94
2023-01-06T07:12:03.761Z,99329.47
2023-01-06T07:13:05.575Z,99315.63
2023-01-06T07:14:07.275Z,99311.75
2023-01-06T07:15:09.644Z,99313.31
2023-01-06T07:16:11.929Z,99311.22
2023-01-06T07:17:13.710Z,99309.31
2023-01-06T07:18:15.786Z,99316.78
2023-01-06T07:19:17.538Z,99305.72
2023-01-06T07:20:19.614Z,99315.59
2023-01-06T07:21:21.306Z,99302.47
2023-01-06T07:22:23.064Z,99303.28
2023-01-06T07:23:24.881Z,99308.16
2023-01-06T07:24:26.610Z,99315.81
2023-01-06T07:25:28.679Z,99316.41
2023-01-06T07:26:30.398Z,99320.72
2023-01-06T07:27:32.146Z,99295.19
2023-01-06T07:28:34.049Z,99308.06
2023-01-06T07:29:35.799Z,99305.06
2023-01-06T07:30:38.060Z,99321.81
2023-01-06T07:31:39.817Z,99325.81
2023-01-06T07:32:41.547Z,99319.53
2023-01-06T07:33:43.274Z,99327.28
2023-01-06T07:34:45.138Z,99308.09
2023-01-06T07:35:46.990Z,99324.84
2023-01-06T07:36:48.738Z,99337.22
2023-01-06T07:37:50.479Z,99330.56
2023-01-06T07:38:52.610Z,99341.44
2023-01-06T07:39:54.299Z,99325.81
2023-01-06T07:41:00.733Z,99328.78
2023-01-06T07:42:02.439Z,99355.78
2023-01-06T07:43:09.549Z,99355.09
2023-01-06T07:44:11.287Z,99354.06
2023-01-06T07:45:13.425Z,99360.09
2023-01-06T07:46:15.234Z,99372.72
2023-01-06T07:47:16.969Z,99352.88
2023-01-06T07:48:18.715Z,99371.19
2023-01-06T07:49:20.414Z,99370.16
2023-01-06T07:50:22.126Z,99371.53
2023-01-06T07:51:23.857Z,99374.09
2023-01-06T07:52:25.664Z,99381.97
2023-01-06T07:53:27.475Z,99380.38
2023-01-06T07:54:29.158Z,99388.44
2023-01-06T07:55:30.937Z,99391.47
2023-01-06T07:56:32.696Z,99395.13
2023-01-06T07:57:34.400Z,99406.44
2023-01-06T07:58:36.133Z,99398.91
2023-01-06T07:59:37.838Z,99402.88
2023-01-06T08:00:39.644Z,99398.47
2023-01-06T08:01:41.488Z,99410.44
2023-01-06T08:02:43.301Z,99412.59
2023-01-06T08:03:45.151Z,99412.41
2023-01-06T08:04:46.890Z,99411.88
2023-01-06T08:05:48.710Z,99411.69
2023-01-06T08:06:50.508Z,99418.25
2023-01-06T08:07:52.208Z,99418.41
2023-01-06T08:08:54.351Z,99414.06
2023-01-06T08:09:56.049Z,99425.97
2023-01-06T08:10:58.703Z,99414.28
2023-01-06T08:12:00.430Z,99420.19
2023-01-06T08:13:02.257Z,99421.19
2023-01-06T08:14:04.074Z,99433.91
2023-01-06T08:15:06.385Z,99431.84
2023-01-06T08:16:09.780Z,99426.81
2023-01-06T08:17:11.537Z,99428.97
2023-01-06T08:18:13.336Z,99435.63
2023-01-06T08:19:15.043Z,99437.63
2023-01-06T08:20:16.762Z,99423.50
2023-01-06T08:21:18.520Z,99414.25
2023-01-06T08:22:20.319Z,99422.41
2023-01-06T08:23:22.009Z,99416.97
2023-01-06T08:24:23.742Z,99430.91
2023-01-06T08:25:25.962Z,99420.22
2023-01-06T08:26:27.729Z,99439.03
2023-01-06T08:27:29.429Z,99424.88
2023-01-06T08:28:31.527Z,99414.84
2023-01-06T08:29:33.239Z,99433.69
2023-01-06T08:30:40.068Z,99432.22
2023-01-06T08:31:41.888Z,99423.28
2023-01-06T08:32:43.601Z,99415.47
2023-01-06T08:33:46.449Z,99432.22
2023-01-06T08:34:48.990Z,99428.03
2023-01-06T08:35:50.725Z,99415.25
2023-01-06T08:36:53.295Z,99410.63
2023-01-06T08:37:55.558Z,99425.75
2023-01-06T08:38:57.980Z,99405.44
2023-01-06T08:39:59.744Z,99398.03
2023-01-06T08:41:02.829Z,99409.34
2023-01-06T08:42:04.771Z,99405.84
2023-01-06T08:43:06.489Z,99405.72
2023-01-06T08:44:08.435Z,99400.38
2023-01-06T08:45:10.301Z,99395.34
2023-01-06T08:46:15.896Z,99393.94
2023-01-06T08:47:17.677Z,99385.75
2023-01-06T08:48:20.262Z,99388.22
2023-01-06T08:49:21.980Z,99394.88
2023-01-06T08:50:24.879Z,99387.19
2023-01-06T08:51:28.570Z,99392.41
2023-01-06T08:52:30.372Z,99386.56
2023-01-06T08:53:33.233Z,99381.53
2023-01-06T08:54:35.026Z,99382.38
2023-01-06T08:55:43.068Z,99379.00
2023-01-06T08:56:45.014Z,99374.84
2023-01-06T08:57:46.725Z,99388.69
2023-01-06T08:59:06.916Z,99370.41
2023-01-06T09:00:09.312Z,99359.91
2023-01-06T09:01:23.314Z,99371.06
2023-01-06T09:02:27.440Z,99358.84
2023-01-06T09:03:29.210Z,99369.19
2023-01-06T09:04:30.928Z,99370.16
2023-01-06T09:05:33.167Z,99360.56
2023-01-06T09:06:36.073Z,99356.56
2023-01-06T09:07:37.803Z,99382.13
2023-01-06T09:08:39.653Z,99356.78
2023-01-06T09:09:41.392Z,99366.50
2023-01-06T09:10:43.109Z,99360.66
2023-01-06T09:11:46.646Z,99369.38
2023-01-06T09:12:48.939Z,99380.63
2023-01-06T09:13:51.502Z,99367.31
2023-01-06T09:14:53.331Z,99367.66
2023-01-06T09:15:55.062Z,99365.28
2023-01-06T09:16:56.920Z,99371.88
2023-01-06T09:17:58.608Z,99367.81
2023-01-06T09:19:00.343Z,99365.34
2023-01-06T09:20:02.489Z,99369.66
2023-01-06T09:21:05.603Z,99373.53
2023-01-06T09:22:07.417Z,99374.66
2023-01-06T09:23:09.129Z,99375.91
2023-01-06T09:24:14.883Z,99375.03
2023-01-06T09:25:16.662Z,99375.56
2023-01-06T09:26:19.349Z,99380.69
2023-01-06T09:27:22.773Z,99380.50
2023-01-06T09:28:25.878Z,99390.84
2023-01-06T09:29:27.653Z,99380.38
2023-01-06T09:30:30.232Z,99385.72
2023-01-06T09:31:31.934Z,99384.31
2023-01-06T09:32:33.917Z,99379.81
2023-01-06T09:33:36.348Z,99393.97
2023-01-06T09:34:38.067Z,99381.81
2023-01-06T09:35:39.787Z,99389.16
2023-01-06T09:36:41.526Z,99383.38
2023-01-06T09:37:43.337Z,99381.69
2023-01-06T09:38:45.173Z,99380.06
2023-01-06T09:39:46.885Z,99395.94
2023-01-06T09:41:26.912Z,99373.84
2023-01-06T09:42:37.622Z,99387.41
2023-01-06T09:43:54.126Z,99387.41
2023-01-06T09:45:03.428Z,99385.81
2023-01-06T09:46:08.399Z,99377.97
2023-01-06T09:47:13.825Z,99363.50
2023-01-06T09:48:21.695Z,99368.38
2023-01-06T09:49:37.622Z,99370.41
2023-01-06T09:50:45.975Z,99345.28
2023-01-06T09:51:48.348Z,99359.00
2023-01-06T09:52:57.841Z,99351.25
2023-01-06T09:54:45.817Z,99356.41
2023-01-06T09:55:50.770Z,99355.09
2023-01-06T09:57:05.975Z,99348.41
2023-01-06T09:58:22.239Z,99347.09
2023-01-06T09:59:36.539Z,99355.28
2023-01-06T10:00:49.572Z,99352.91
2023-01-06T10:01:51.575Z,99350.03
2023-01-06T10:02:53.469Z,99350.66
2023-01-06T10:03:57.065Z,99349.00
2023-01-06T10:04:58.963Z,99353.09
2023-01-06T10:06:44.636Z,99351.25
2023-01-06T10:08:23.886Z,99341.28
2023-01-06T10:09:31.396Z,99343.97
2023-01-06T10:10:45.269Z,99340.56
2023-01-06T10:11:49.925Z,99342.75
2023-01-06T10:13:07.675Z,99344.06
2023-01-06T10:14:10.877Z,99336.28
2023-01-06T10:15:30.911Z,99341.41
2023-01-06T10:16:55.234Z,99338.69
2023-01-06T10:18:21.673Z,99337.06
2023-01-06T10:19:51.324Z,99341.66
2023-01-06T10:21:14.675Z,99343.00
2023-01-06T10:22:27.549Z,99334.94
2023-01-06T10:23:41.068Z,99340.81
2023-01-06T10:25:15.332Z,99339.44
2023-01-06T10:26:30.705Z,99324.31
2023-01-06T10:27:46.530Z,99322.19
2023-01-06T10:28:53.959Z,99324.25
2023-01-06T10:29:57.444Z,99321.56
2023-01-06T10:31:04.136Z,99318.88
2023-01-06T10:32:11.553Z,99320.91
2023-01-06T10:33:24.271Z,99308.16
2023-01-06T10:34:28.515Z,99323.66
2023-01-06T10:35:32.265Z,99309.44
2023-01-06T10:36:42.477Z,99317.47
2023-01-06T10:37:49.765Z,99307.84
2023-01-06T10:38:53.461Z,99311.59
2023-01-06T10:40:26.052Z,99307.81
2023-01-06T10:41:50.980Z,99305.38
2023-01-06T10:43:02.611Z,99304.81
2023-01-06T10:44:04.677Z,99299.16
2023-01-06T10:45:11.572Z,99305.13
2023-01-06T10:46:14.217Z,99286.09
2023-01-06T10:47:30.213Z,99287.63
2023-01-06T10:48:34.462Z,99295.25
2023-01-06T10:49:36.208Z,99289.38
2023-01-06T10:50:38.700Z,99293.91
2023-01-06T10:51:44.590Z,99281.69
2023-01-06T10:52:47.614Z,99282.25
2023-01-06T10:53:49.685Z,99277.09
2023-01-06T10:54:56.607Z,99277.75
2023-01-06T10:56:00.666Z,99291.75
2023-01-06T10:57:11.774Z,99278.78
2023-01-06T10:58:22.527Z,99280.84
2023-01-06T10:59:24.247Z,99269.53
2023-01-06T11:00:26.898Z,99272.31
2023-01-06T11:01:30.299Z,99245.06
2023-01-06T11:02:32.132Z,99256.56
2023-01-06T11:03:35.007Z,99257.53
2023-01-06T11:04:51.523Z,99271.31
2023-01-06T11:06:14.810Z,99273.06
2023-01-06T11:07:17.091Z,99260.56
2023-01-06T11:08:19.937Z,99263.44
2023-01-06T11:09:43.005Z,99274.81
2023-01-06T11:10:52.180Z,99269.88
2023-01-06T11:11:55.898Z,99270.47
2023-01-06T11:13:00.063Z,99256.00
2023-01-06T11:14:05.720Z,99251.41
2023-01-06T11:15:08.763Z,99257.53
2023-01-06T11:16:27.727Z,99269.38
2023-01-06T11:17:31.061Z,99258.50
2023-01-06T11:18:35.083Z,99253.50
2023-01-06T11:19:39.628Z,99251.28
2023-01-06T11:20:41.859Z,99271.16
2023-01-06T11:21:46.937Z,99272.47
2023-01-06T11:22:48.801Z,99266.38
2023-01-06T11:24:08.864Z,99269.44
2023-01-06T11:25:19.873Z,99246.81
2023-01-06T11:26:26.942Z,99260.84
2023-01-06T11:27:28.743Z,99263.59
2023-01-06T11:28:30.946Z,99250.75
2023-01-06T11:29:35.034Z,99260.63
2023-01-06T11:30:48.575Z,99255.28
2023-01-06T11:31:50.917Z,99259.91
2023-01-06T11:32:53.581Z,99260.34
2023-01-06T11:34:01.153Z,99256.03
2023-01-06T11:35:05.835Z,99260.34
2023-01-06T11:36:11.073Z,99252.09
2023-01-06T11:37:12.853Z,99246.84
2023-01-06T11:38:17.175Z,99256.09
2023-01-06T11:39:28.037Z,99236.13
2023-01-06T11:40:37.080Z,99235.81
2023-01-06T11:41:48.073Z,99259.03
2023-01-06T11:42:55.053Z,99248.59
2023-01-06T11:44:19.124Z,99251.03
2023-01-06T11:46:00.493Z,99256.53
2023-01-06T11:47:08.739Z,99246.16
2023-01-06T11:48:19.991Z,99247.78
2023-01-06T11:49:29.264Z,99239.91
2023-01-06T11:50:31.857Z,99243.16
2023-01-06T11:51:48.309Z,99240.56
2023-01-06T11:53:02.175Z,99236.84
2023-01-06T11:54:20.535Z,99252.63
2023-01-06T11:55:23.015Z,99238.47
2023-01-06T11:56:25.266Z,99233.53
2023-01-06T11:58:04.828Z,99247.69
2023-01-06T11:59:13.086Z,99250.59
2023-01-06T12:00:33.501Z,99244.09
2023-01-06T12:02:10.811Z,99254.13
2023-01-06T12:03:35.829Z,99256.13
2023-01-06T12:04:53.583Z,99262.41
2023-01-06T12:06:04.503Z,99249.69
2023-01-06T12:07:33.266Z,99262.19
2023-01-06T12:08:47.263Z,99261.38
2023-01-06T12:09:50.103Z,99264.13
2023-01-06T12:10:59.692Z,99258.38
2023-01-06T12:12:07.755Z,99255.78
2023-01-06T12:13:13.710Z,99266.22
2023-01-06T12:14:28.502Z,99267.31
2023-01-06T12:15:34.418Z,99269.53
2023-01-06T12:16:45.276Z,99265.69
2023-01-06T12:17:53.225Z,99250.31
2023-01-06T12:18:55.616Z,99262.44
2023-01-06T12:20:13.577Z,99265.72
2023-01-06T12:21:25.626Z,99266.53
2023-01-06T12:22:44.987Z,99251.38
2023-01-06T12:23:47.311Z,99265.16
2023-01-06T12:24:50.452Z,99247.44
2023-01-06T12:25:57.154Z,99257.97
2023-01-06T12:27:02.793Z,99252.31
2023-01-06T12:28:11.692Z,99259.13
2023-01-06T12:29:19.351Z,99254.59
2023-01-06T12:30:30.109Z,99252.34
2023-01-06T12:31:55.047Z,99248.06
2023-01-06T12:33:02.055Z,99254.94
2023-01-06T12:34:16.538Z,99259.53
2023-01-06T12:35:25.281Z,99245.66
2023-01-06T12:36:28.003Z,99254.88
2023-01-06T12:37:43.227Z,99259.22
2023-01-06T12:38:55.389Z,99259.69
2023-01-06T12:40:36.777Z,99263.41
2023-01-06T12:41:45.371Z,99261.59
2023-01-06T12:42:51.794Z,99262.75
2023-01-06T12:44:03.468Z,99264.84
2023-01-06T12:45:10.778Z,99263.69
2023-01-06T12:46:25.046Z,99266.00
2023-01-06T12:47:38.202Z,99265.56
2023-01-06T12:48:56.054Z,99267.88
2023-01-06T12:50:03.356Z,99256.06
2023-01-06T12:51:16.289Z,99255.94
2023-01-06T12:52:24.154Z,99237.34
2023-01-06T12:53:27.960Z,99258.28
2023-01-06T12:54:34.587Z,99258.81
2023-01-06T12:55:56.472Z,99257.22
2023-01-06T12:57:01.079Z,99254.78
2023-01-06T12:58:44.423Z,99247.34